createdAt,value
2022-10-20T00:01:10.747Z,69.45
2022-10-20T00:03:38.342Z,69.33
2022-10-20T00:06:13.878Z,69.26
2022-10-20T00:08:41.729Z,69.19
2022-10-20T00:11:10.404Z,68.86
2022-10-20T00:13:38.661Z,68.71
2022-10-20T00:18:48.598Z,69.11
2022-10-20T00:21:17.911Z,68.91
2022-10-20T00:26:56.121Z,68.96
2022-10-20T00:32:19.148Z,68.54
2022-10-20T00:34:45.715Z,68.64
2022-10-20T00:37:12.224Z,68.71
2022-10-20T00:39:38.801Z,68.71
2022-10-20T00:42:05.942Z,68.62
2022-10-20T00:44:51.163Z,68.62
2022-10-20T00:47:36.877Z,68.34
2022-10-20T00:50:15.432Z,68.21
2022-10-20T00:52:44.468Z,68.11
2022-10-20T00:58:04.960Z,68.37
2022-10-20T01:01:03.529Z,68.21
2022-10-20T01:03:46.750Z,68.52
2022-10-20T01:06:18.592Z,68.47
2022-10-20T01:08:45.646Z,68.51
2022-10-20T01:11:16.474Z,68.40
2022-10-20T01:14:06.200Z,68.21
2022-10-20T01:17:03.209Z,68.06
2022-10-20T01:20:03.366Z,68.36
2022-10-20T01:25:07.761Z,67.83
2022-10-20T01:27:39.238Z,68.05
2022-10-20T01:30:21.192Z,68.18
2022-10-20T01:32:59.519Z,68.31
2022-10-20T01:35:58.444Z,68.09
2022-10-20T01:38:39.639Z,68.27
2022-10-20T01:44:13.862Z,68.38
2022-10-20T01:47:01.097Z,68.58
2022-10-20T01:49:27.890Z,68.44
2022-10-20T01:51:56.058Z,68.55
2022-10-20T01:54:47.705Z,68.22
2022-10-20T01:57:32.230Z,67.98
2022-10-20T02:00:01.467Z,68.12
2022-10-20T02:03:02.322Z,68.23
2022-10-20T02:05:49.905Z,68.19
2022-10-20T02:08:44.618Z,67.89
2022-10-20T02:11:25.152Z,67.58
2022-10-20T02:13:52.846Z,67.36
2022-10-20T02:16:27.437Z,67.36
2022-10-20T02:18:55.342Z,67.58
2022-10-20T02:21:22.185Z,67.14
2022-10-20T02:23:51.615Z,67.53
2022-10-20T02:26:22.331Z,67.28
2022-10-20T02:28:54.757Z,67.12
2022-10-20T02:31:21.941Z,67.57
2022-10-20T02:33:48.921Z,67.48
2022-10-20T02:36:51.393Z,67.06
2022-10-20T02:39:17.939Z,66.88
2022-10-20T02:41:44.498Z,66.95
2022-10-20T02:44:11.092Z,66.51
2022-10-20T02:46:37.663Z,66.63
2022-10-20T02:49:04.282Z,66.86
2022-10-20T02:51:30.901Z,66.34
2022-10-20T02:53:57.520Z,65.64
2022-10-20T02:56:25.486Z,65.63
2022-10-20T02:58:54.341Z,65.56
2022-10-20T03:04:16.686Z,65.28
2022-10-20T03:06:43.264Z,64.96
2022-10-20T03:09:09.931Z,64.80
2022-10-20T03:11:36.545Z,64.65
2022-10-20T03:14:03.516Z,64.86
2022-10-20T03:16:30.069Z,64.89
2022-10-20T03:19:00.007Z,64.92
2022-10-20T03:21:54.830Z,64.63
2022-10-20T03:24:21.362Z,64.35
2022-10-20T03:26:47.892Z,63.87
2022-10-20T03:29:14.467Z,64.04
2022-10-20T03:31:41.085Z,63.58
2022-10-20T03:34:07.932Z,63.57
2022-10-20T03:36:34.446Z,63.60
2022-10-20T03:39:00.996Z,63.57
2022-10-20T03:41:27.616Z,63.84
2022-10-20T03:43:54.213Z,63.34
2022-10-20T03:46:20.782Z,63.04
2022-10-20T03:48:47.412Z,62.90
2022-10-20T03:51:14.580Z,63.14
2022-10-20T03:53:41.159Z,63.41
2022-10-20T03:56:10.034Z,63.39
2022-10-20T04:29:20.079Z,62.03
2022-10-20T04:31:49.082Z,61.49
2022-10-20T04:34:16.033Z,61.82
2022-10-20T04:36:42.702Z,61.18
2022-10-20T04:39:09.419Z,61.35
2022-10-20T04:41:35.941Z,61.38
2022-10-20T04:44:02.893Z,61.19
2022-10-20T04:46:29.493Z,61.22
2022-10-20T04:48:56.029Z,61.55
2022-10-20T04:51:22.733Z,61.03
2022-10-20T04:53:49.340Z,61.85
2022-10-20T04:56:19.843Z,61.50
2022-10-20T04:58:50.848Z,61.03
2022-10-20T05:01:18.670Z,61.19
2022-10-20T05:03:45.313Z,61.11
2022-10-20T05:06:33.213Z,61.04
2022-10-20T05:09:02.261Z,60.88
2022-10-20T05:11:31.749Z,60.85
2022-10-20T05:13:58.865Z,60.79
2022-10-20T05:16:25.499Z,60.73
2022-10-20T05:18:52.306Z,60.71
2022-10-20T05:21:22.104Z,60.50
2022-10-20T05:23:49.589Z,60.64
2022-10-20T05:26:18.557Z,61.03
2022-10-20T05:28:47.367Z,61.13
2022-10-20T05:31:15.771Z,60.89
2022-10-20T05:33:51.330Z,60.91
2022-10-20T05:36:21.535Z,61.06
2022-10-20T05:38:49.708Z,61.16
2022-10-20T05:41:19.263Z,61.48
2022-10-20T05:43:50.467Z,61.86
2022-10-20T05:46:18.411Z,62.24
2022-10-20T05:48:46.059Z,63.09
2022-10-20T05:51:18.221Z,63.48
2022-10-20T05:53:46.907Z,64.21
2022-10-20T05:56:16.121Z,64.50
2022-10-20T05:58:43.905Z,64.95
2022-10-20T06:01:24.867Z,65.36
2022-10-20T06:03:59.990Z,65.17
2022-10-20T06:06:29.229Z,65.51
2022-10-20T06:08:57.479Z,65.36
2022-10-20T06:11:24.981Z,65.91
2022-10-20T06:13:53.169Z,66.01
2022-10-20T06:16:22.765Z,65.71
2022-10-20T06:18:49.686Z,65.96
2022-10-20T06:21:27.345Z,65.92
2022-10-20T06:23:54.077Z,66.26
2022-10-20T06:26:23.285Z,66.23
2022-10-20T06:28:53.193Z,66.49
2022-10-20T06:31:22.348Z,66.48
2022-10-20T06:33:49.466Z,66.20
2022-10-20T06:36:16.625Z,66.36
2022-10-20T06:38:43.973Z,66.31
2022-10-20T06:41:13.612Z,66.36
2022-10-20T06:43:40.269Z,66.23
2022-10-20T06:46:10.333Z,65.88
2022-10-20T06:48:37.218Z,66.09
2022-10-20T06:51:06.330Z,65.89
2022-10-20T06:53:35.575Z,65.76
2022-10-20T06:56:11.672Z,65.92
2022-10-20T06:58:40.827Z,65.68
2022-10-20T07:01:27.710Z,65.94
2022-10-20T07:03:57.584Z,65.91
2022-10-20T07:06:30.849Z,66.22
2022-10-20T07:08:58.101Z,66.10
2022-10-20T07:11:27.748Z,66.20
2022-10-20T07:13:54.592Z,65.95
2022-10-20T07:16:24.667Z,65.79
2022-10-20T07:18:51.572Z,65.93
2022-10-20T07:21:20.911Z,65.68
2022-10-20T07:23:48.870Z,65.59
2022-10-20T07:26:26.943Z,65.54
2022-10-20T07:28:56.205Z,65.13
2022-10-20T07:31:28.890Z,65.05
2022-10-20T07:34:07.261Z,65.07
2022-10-20T07:36:43.814Z,64.80
2022-10-20T07:39:12.817Z,64.68
2022-10-20T07:41:40.443Z,64.64
2022-10-20T07:44:07.734Z,64.21
2022-10-20T07:46:34.870Z,64.09
2022-10-20T07:49:23.883Z,64.43
2022-10-20T07:51:48.053Z,63.74
2022-10-20T07:54:14.644Z,63.77
2022-10-20T07:56:42.802Z,63.48
2022-10-20T07:59:11.087Z,63.43
2022-10-20T08:01:38.077Z,63.44
2022-10-20T08:04:04.781Z,63.54
2022-10-20T08:06:31.554Z,63.68
2022-10-20T08:08:58.606Z,63.69
2022-10-20T08:11:25.252Z,63.89
2022-10-20T08:16:43.510Z,64.01
2022-10-20T08:21:50.665Z,63.74
2022-10-20T08:24:17.185Z,63.79
2022-10-20T08:26:44.038Z,63.47
2022-10-20T08:29:12.283Z,63.79
2022-10-20T08:31:39.735Z,63.91
2022-10-20T08:34:06.560Z,63.89
2022-10-20T08:36:33.174Z,63.97
2022-10-20T08:39:03.487Z,63.57
2022-10-20T08:42:02.749Z,63.97
2022-10-20T08:44:34.440Z,64.11
2022-10-20T08:47:03.076Z,64.20
2022-10-20T08:49:33.830Z,64.40
2022-10-20T08:52:01.195Z,64.48
2022-10-20T08:54:27.841Z,64.64
2022-10-20T08:56:54.508Z,64.61
2022-10-20T08:59:33.365Z,64.73
2022-10-20T09:02:00.973Z,64.84
2022-10-20T09:04:37.779Z,64.71
2022-10-20T09:07:14.844Z,64.71
2022-10-20T09:09:41.478Z,64.91
2022-10-20T09:12:13.413Z,64.84
2022-10-20T09:14:40.018Z,64.73
2022-10-20T09:17:13.271Z,65.18
2022-10-20T09:19:42.971Z,65.09
2022-10-20T09:22:13.195Z,65.36
2022-10-20T09:24:42.840Z,65.21
2022-10-20T09:27:33.847Z,65.29
2022-10-20T09:30:14.610Z,65.03
2022-10-20T09:32:46.573Z,64.99
2022-10-20T09:35:25.261Z,65.17
2022-10-20T09:37:57.778Z,65.19
2022-10-20T09:40:26.463Z,65.38
2022-10-20T09:43:02.285Z,65.87
2022-10-20T09:45:31.273Z,66.26
2022-10-20T09:48:27.431Z,66.33
2022-10-20T09:50:56.633Z,66.00
2022-10-20T09:54:06.334Z,65.04
2022-10-20T09:56:40.860Z,64.52
2022-10-20T09:59:20.817Z,64.13
2022-10-20T10:02:02.135Z,63.61
2022-10-20T10:04:40.327Z,63.87
2022-10-20T10:07:26.726Z,64.70
2022-10-20T10:09:56.429Z,64.26
2022-10-20T10:12:25.247Z,63.77
2022-10-20T10:14:54.718Z,62.88
2022-10-20T10:17:35.245Z,62.69
2022-10-20T10:20:07.516Z,62.28
2022-10-20T10:22:35.295Z,61.50
2022-10-20T10:25:03.030Z,61.10
2022-10-20T10:27:32.967Z,61.06
2022-10-20T10:30:30.187Z,60.56
2022-10-20T10:32:57.188Z,59.88
2022-10-20T10:35:32.021Z,59.21
2022-10-20T10:38:00.157Z,58.96
2022-10-20T10:40:40.605Z,58.15
2022-10-20T10:43:13.130Z,58.05
2022-10-20T10:45:52.856Z,57.61
2022-10-20T10:48:56.395Z,57.40
2022-10-20T10:51:44.874Z,57.74
2022-10-20T10:54:38.542Z,56.64
2022-10-20T10:57:15.844Z,55.11
2022-10-20T10:59:44.660Z,55.57
2022-10-20T11:02:53.794Z,56.68
2022-10-20T11:05:38.275Z,57.08
2022-10-20T11:08:10.745Z,56.83
2022-10-20T11:10:40.684Z,55.89
2022-10-20T11:13:36.017Z,55.94
2022-10-20T11:16:05.615Z,56.86
2022-10-20T11:18:44.558Z,56.78
2022-10-20T11:21:32.953Z,56.43
2022-10-20T11:24:21.609Z,56.06
2022-10-20T11:26:54.390Z,56.14
2022-10-20T11:29:29.044Z,55.82
2022-10-20T11:32:00.595Z,56.23
2022-10-20T11:34:30.146Z,55.79
2022-10-20T11:37:07.892Z,55.36
2022-10-20T11:39:41.692Z,54.77
2022-10-20T11:42:29.352Z,54.21
2022-10-20T11:44:59.886Z,54.83
2022-10-20T11:47:42.641Z,54.89
2022-10-20T11:50:13.621Z,54.53
2022-10-20T11:52:46.288Z,54.33
2022-10-20T11:55:28.045Z,54.12
2022-10-20T11:58:13.400Z,53.80
2022-10-20T12:01:10.202Z,52.96
2022-10-20T12:04:05.106Z,51.70
2022-10-20T12:06:53.480Z,50.67
2022-10-20T12:09:34.925Z,49.36
2022-10-20T12:12:21.091Z,48.45
2022-10-20T12:14:57.573Z,48.53
2022-10-20T12:17:28.280Z,48.63
2022-10-20T12:20:20.406Z,48.02
2022-10-20T12:22:55.388Z,46.78
2022-10-20T12:25:25.109Z,46.70
2022-10-20T12:28:19.622Z,45.58
2022-10-20T12:31:04.097Z,45.07
2022-10-20T12:33:40.445Z,44.46
2022-10-20T12:36:18.899Z,43.61
2022-10-20T12:38:50.869Z,43.06
2022-10-20T12:41:35.444Z,42.29
2022-10-20T12:44:05.617Z,42.35
2022-10-20T12:46:35.598Z,42.37
2022-10-20T12:49:11.023Z,42.33
2022-10-20T12:51:48.082Z,42.36
2022-10-20T12:54:17.701Z,43.30
2022-10-20T12:56:45.234Z,43.26
2022-10-20T12:59:29.481Z,43.21
2022-10-20T13:02:08.226Z,43.15
2022-10-20T13:05:05.897Z,42.63
2022-10-20T13:07:52.500Z,42.39
2022-10-20T13:10:29.715Z,42.33
2022-10-20T13:13:02.162Z,41.94
2022-10-20T13:15:34.918Z,42.56
2022-10-20T13:18:13.807Z,42.99
2022-10-20T13:20:49.521Z,43.67
2022-10-20T13:23:19.439Z,44.41
2022-10-20T13:25:50.642Z,44.04
2022-10-20T13:28:18.337Z,44.06
2022-10-20T13:31:22.580Z,43.75
2022-10-20T13:34:10.568Z,43.57
2022-10-20T13:37:03.701Z,44.12
2022-10-20T13:39:48.434Z,44.88
2022-10-20T13:42:25.819Z,44.92
2022-10-20T13:45:21.823Z,45.43
2022-10-20T13:47:52.048Z,45.22
2022-10-20T13:50:23.057Z,44.16
2022-10-20T13:52:57.598Z,44.11
2022-10-20T13:55:30.973Z,44.86
2022-10-20T13:58:14.813Z,45.43
2022-10-20T14:00:41.424Z,45.95
2022-10-20T14:03:18.241Z,45.94
2022-10-20T14:05:44.785Z,45.59
2022-10-20T14:08:15.127Z,45.69
2022-10-20T14:11:04.618Z,46.76
2022-10-20T14:13:34.396Z,46.04
2022-10-20T14:16:04.289Z,46.09
2022-10-20T14:18:35.558Z,46.27
2022-10-20T14:21:08.587Z,46.20
2022-10-20T14:23:41.726Z,46.78
2022-10-20T14:26:14.177Z,47.52
2022-10-20T14:28:43.042Z,48.03
2022-10-20T14:31:14.208Z,49.03
2022-10-20T14:33:45.963Z,49.38
2022-10-20T14:36:25.075Z,49.88
2022-10-20T14:38:54.446Z,50.90
2022-10-20T14:41:25.873Z,51.45
2022-10-20T14:43:56.835Z,52.19
2022-10-20T14:46:39.897Z,52.87
2022-10-20T14:49:18.857Z,53.58
2022-10-20T14:51:53.569Z,54.20
2022-10-20T14:54:20.170Z,54.26
2022-10-20T14:56:54.418Z,54.90
2022-10-20T14:59:24.560Z,55.36
2022-10-20T15:02:09.687Z,55.18
2022-10-20T15:04:38.748Z,55.50
2022-10-20T15:07:27.516Z,55.78
2022-10-20T15:10:07.750Z,55.88
2022-10-20T15:12:37.457Z,55.89
2022-10-20T15:15:10.114Z,56.14
2022-10-20T15:17:38.337Z,56.18
2022-10-20T15:20:29.955Z,56.67
2022-10-20T15:22:58.318Z,56.79
2022-10-20T15:25:27.356Z,57.09
2022-10-20T15:27:56.061Z,57.55
2022-10-20T15:30:24.582Z,58.26
2022-10-20T15:32:52.055Z,58.42
2022-10-20T15:35:22.403Z,59.04
2022-10-20T15:38:28.156Z,59.33
2022-10-20T15:40:54.862Z,59.70
2022-10-20T15:43:21.647Z,60.13
2022-10-20T15:45:54.531Z,60.43
2022-10-20T15:48:25.756Z,60.44
2022-10-20T15:50:54.187Z,60.81
2022-10-20T15:53:20.861Z,61.01
2022-10-20T15:55:47.481Z,61.40
2022-10-20T15:58:14.232Z,61.60
2022-10-20T16:00:40.906Z,62.23
2022-10-20T16:03:11.864Z,62.91
2022-10-20T16:05:38.501Z,62.94
2022-10-20T16:08:05.244Z,63.25
2022-10-20T16:10:31.901Z,63.71
2022-10-20T16:12:58.438Z,64.04
2022-10-20T16:15:30.236Z,64.23
2022-10-20T16:17:58.090Z,64.34
2022-10-20T16:20:24.954Z,64.76
2022-10-20T16:22:51.572Z,64.75
2022-10-20T16:25:18.288Z,64.99
2022-10-20T16:27:44.869Z,65.02
2022-10-20T16:30:11.659Z,65.44
2022-10-20T16:32:38.595Z,65.93
2022-10-20T16:35:06.189Z,66.11
2022-10-20T16:40:16.333Z,66.52
2022-10-20T16:42:54.666Z,66.72
2022-10-20T16:45:21.257Z,66.75
2022-10-20T16:47:47.922Z,67.04
2022-10-20T16:50:14.496Z,67.12
2022-10-20T16:52:41.199Z,67.25
2022-10-20T16:55:08.193Z,67.48
2022-10-20T16:57:39.036Z,67.31
2022-10-20T17:00:08.456Z,67.75
2022-10-20T17:02:36.164Z,67.94
2022-10-20T17:05:05.355Z,68.01
2022-10-20T17:07:35.424Z,68.29
2022-10-20T17:10:02.231Z,67.96
2022-10-20T17:12:28.812Z,68.37
2022-10-20T17:14:55.473Z,68.04
2022-10-20T17:17:22.128Z,68.14
2022-10-20T17:19:48.692Z,68.31
2022-10-20T17:22:15.466Z,68.08
2022-10-20T17:24:42.083Z,68.54
2022-10-20T17:27:09.145Z,68.67
2022-10-20T17:29:35.994Z,68.83
2022-10-20T17:32:02.694Z,69.04
2022-10-20T17:34:29.323Z,69.36
2022-10-20T17:36:55.961Z,69.00
2022-10-20T17:39:24.009Z,69.13
2022-10-20T17:41:50.720Z,68.99
2022-10-20T17:44:17.347Z,69.72
2022-10-20T17:46:44.026Z,69.68
2022-10-20T17:49:10.662Z,69.87
2022-10-20T17:51:37.423Z,70.14
2022-10-20T17:54:04.653Z,70.26
2022-10-20T17:56:35.388Z,70.62
2022-10-20T17:59:05.341Z,70.34
2022-10-20T18:01:38.064Z,70.53
2022-10-20T18:04:12.476Z,70.94
2022-10-20T18:06:39.803Z,70.94
2022-10-20T18:09:15.258Z,71.17
2022-10-20T18:11:47.926Z,71.23
2022-10-20T18:14:17.783Z,71.56
2022-10-20T18:16:44.479Z,71.56
2022-10-20T18:19:15.658Z,71.69
2022-10-20T18:21:42.790Z,71.78
2022-10-20T18:24:12.313Z,71.79
2022-10-20T18:26:39.143Z,71.99
2022-10-20T18:29:07.915Z,72.22
2022-10-20T18:31:36.237Z,72.43
2022-10-20T18:34:07.120Z,72.50
2022-10-20T18:36:37.963Z,72.47
2022-10-20T18:39:08.384Z,72.54
2022-10-20T18:41:38.095Z,72.79
2022-10-20T18:44:10.047Z,72.77
2022-10-20T18:46:37.327Z,72.91
2022-10-20T18:49:07.013Z,72.82
2022-10-20T18:51:35.695Z,72.88
2022-10-20T18:54:04.396Z,72.73
2022-10-20T18:56:31.306Z,72.72
2022-10-20T18:59:00.011Z,72.69
2022-10-20T19:01:28.998Z,72.35
2022-10-20T19:03:57.020Z,72.85
2022-10-20T19:06:27.937Z,72.89
2022-10-20T19:08:56.703Z,72.80
2022-10-20T19:11:26.085Z,72.95
2022-10-20T19:13:53.287Z,73.29
2022-10-20T19:16:26.861Z,73.38
2022-10-20T19:18:56.091Z,73.39
2022-10-20T19:21:24.333Z,73.74
2022-10-20T19:23:53.710Z,73.82
2022-10-20T19:26:24.586Z,73.99
2022-10-20T19:28:58.832Z,73.57
2022-10-20T19:31:33.594Z,72.98
2022-10-20T19:34:09.706Z,73.42
2022-10-20T19:36:36.417Z,73.31
2022-10-20T19:39:05.657Z,73.50
2022-10-20T19:41:32.319Z,73.46
2022-10-20T19:43:59.472Z,73.17
2022-10-20T19:46:26.277Z,72.91
2022-10-20T19:48:52.934Z,72.87
2022-10-20T19:51:20.520Z,72.59
2022-10-20T19:53:47.959Z,72.30
2022-10-20T19:56:15.256Z,72.43
2022-10-20T19:58:45.728Z,72.45
2022-10-20T20:01:13.783Z,72.39
2022-10-20T20:03:40.726Z,72.36
2022-10-20T20:06:17.324Z,72.14
2022-10-20T20:08:45.651Z,72.23
2022-10-20T20:11:22.734Z,72.03
2022-10-20T20:14:03.426Z,72.07
2022-10-20T20:16:30.163Z,72.33
2022-10-20T20:18:56.887Z,71.90
2022-10-20T20:21:23.994Z,71.79
2022-10-20T20:24:00.238Z,71.86
2022-10-20T20:26:32.984Z,71.86
2022-10-20T20:29:00.115Z,71.96
2022-10-20T20:31:27.751Z,72.16
2022-10-20T20:33:56.667Z,72.37
2022-10-20T20:36:26.123Z,72.42
2022-10-20T20:38:56.556Z,72.38
2022-10-20T20:41:26.112Z,72.61
2022-10-20T20:43:52.862Z,72.71
2022-10-20T20:46:22.375Z,72.72
2022-10-20T20:48:49.034Z,72.72
2022-10-20T20:51:16.200Z,72.99
2022-10-20T20:53:42.771Z,72.88
2022-10-20T20:56:21.702Z,72.94
2022-10-20T20:58:55.064Z,72.71
2022-10-20T21:01:40.896Z,72.77
2022-10-20T21:04:11.454Z,72.65
2022-10-20T21:07:00.670Z,72.85
2022-10-20T21:09:26.528Z,72.64
2022-10-20T21:11:53.160Z,73.03
2022-10-20T21:14:19.816Z,72.96
2022-10-20T21:16:46.670Z,72.73
2022-10-20T21:19:13.306Z,72.85
2022-10-20T21:21:44.221Z,72.36
2022-10-20T21:24:11.872Z,72.42
2022-10-20T21:26:38.763Z,71.88
2022-10-20T21:29:05.605Z,72.14
2022-10-20T21:31:32.174Z,72.06
2022-10-20T21:34:01.032Z,72.04
2022-10-20T21:36:29.625Z,71.87
2022-10-20T21:38:56.224Z,71.88
2022-10-20T21:41:26.007Z,71.85
2022-10-20T21:43:55.611Z,71.77
2022-10-20T21:46:28.917Z,71.93
2022-10-20T21:49:07.480Z,71.62
2022-10-20T21:51:36.535Z,71.61
2022-10-20T21:54:06.301Z,71.65
2022-10-20T21:56:38.443Z,71.44
2022-10-20T21:59:06.379Z,71.29
2022-10-20T22:01:33.312Z,71.61
2022-10-20T22:04:00.150Z,71.37
2022-10-20T22:06:27.914Z,71.12
2022-10-20T22:08:57.626Z,71.00
2022-10-20T22:11:39.163Z,71.28
2022-10-20T22:14:06.240Z,71.50
2022-10-20T22:16:35.853Z,71.27
2022-10-20T22:19:09.186Z,71.69
2022-10-20T22:21:37.558Z,71.92
2022-10-20T22:24:05.011Z,71.55
2022-10-20T22:26:31.930Z,71.63
2022-10-20T22:28:59.343Z,71.90
2022-10-20T22:31:29.448Z,71.93
2022-10-20T22:33:57.403Z,72.02
2022-10-20T22:36:25.885Z,71.74
2022-10-20T22:38:52.834Z,72.01
2022-10-20T22:41:19.930Z,72.18
2022-10-20T22:43:46.613Z,72.17
2022-10-20T22:46:13.324Z,72.17
2022-10-20T22:48:39.959Z,72.15
2022-10-20T22:51:08.410Z,72.10
2022-10-20T22:53:36.016Z,72.14
2022-10-20T22:56:09.093Z,72.32
2022-10-20T22:58:36.370Z,72.17
2022-10-20T23:01:11.641Z,72.00
2022-10-20T23:03:39.250Z,72.27
2022-10-20T23:06:13.388Z,72.31
2022-10-20T23:08:48.763Z,72.23
2022-10-20T23:11:17.130Z,72.12
2022-10-20T23:13:44.096Z,72.17
2022-10-20T23:16:11.670Z,72.50
2022-10-20T23:18:38.400Z,72.19
2022-10-20T23:21:08.196Z,72.20
2022-10-20T23:23:36.941Z,72.22
2022-10-20T23:26:05.108Z,72.24
2022-10-20T23:28:32.383Z,72.39
2022-10-20T23:31:07.399Z,72.48
2022-10-20T23:33:34.071Z,72.73
2022-10-20T23:36:00.803Z,72.70
2022-10-20T23:38:27.873Z,72.63
2022-10-20T23:40:54.546Z,72.85
2022-10-20T23:43:21.366Z,72.79
2022-10-20T23:45:47.986Z,72.72
2022-10-20T23:48:14.621Z,73.04
2022-10-20T23:50:43.377Z,72.87
2022-10-20T23:53:10.175Z,72.90
2022-10-20T23:55:36.875Z,73.13
2022-10-20T23:58:03.552Z,73.08
